Time;durP1;ratioP1;P1;durP2;ratioP2;P2;SDS_P1;SDS_P2;PMS_P1;PMS_P2;Temp;Humidity;BMP_temperature;BMP_pressure;BME280_temperature;BME280_humidity;BME280_pressure;Samples;Min_cycle;Max_cycle;Signal;HPM_P1;HPM_P2
2021/01/02 00:00:11;;;;;;;24.58;8.75;;;;;;;;;;5076374;28;20051;-60
2021/01/02 00:02:51;;;;;;;27.08;8.73;;;;;;;;;;5081551;28;20109;-59
2021/01/02 00:05:19;;;;;;;22.30;7.38;;;;;;;;;;5076174;28;20052;-60
2021/01/02 00:08:00;;;;;;;21.80;8.25;;;;;;;;;;5079647;28;20044;-60
2021/01/02 00:10:28;;;;;;;23.52;8.65;;;;;;;;;;5076149;27;20036;-60
2021/01/02 00:13:02;;;;;;;30.20;9.30;;;;;;;;;;5081163;28;20040;-59
2021/01/02 00:15:31;;;;;;;27.00;10.30;;;;;;;;;;5072483;28;20048;-59
2021/01/02 00:18:04;;;;;;;25.45;8.63;;;;;;;;;;5080595;28;20056;-59
2021/01/02 00:20:34;;;;;;;26.08;9.38;;;;;;;;;;5076010;28;20055;-60
2021/01/02 00:23:01;;;;;;;26.83;8.95;;;;;;;;;;5080002;28;20056;-61
2021/01/02 00:25:29;;;;;;;26.88;8.90;;;;;;;;;;5080472;28;20725;-59
2021/01/02 00:28:09;;;;;;;22.88;9.07;;;;;;;;;;5082095;28;20055;-59
2021/01/02 00:30:50;;;;;;;23.15;8.65;;;;;;;;;;5078555;28;20051;-59
2021/01/02 00:33:18;;;;;;;25.73;8.40;;;;;;;;;;5049009;28;20063;-59
2021/01/02 00:35:46;;;;;;;22.63;7.88;;;;;;;;;;5079127;28;20044;-60
2021/01/02 00:38:14;;;;;;;23.77;8.60;;;;;;;;;;5083645;28;20044;-59
2021/01/02 00:40:40;;;;;;;19.83;8.30;;;;;;;;;;5083155;28;20055;-60
2021/01/02 00:43:13;;;;;;;25.67;8.90;;;;;;;;;;5077420;28;20048;-60
2021/01/02 00:45:40;;;;;;;21.95;8.38;;;;;;;;;;5083195;28;20047;-60
2021/01/02 00:48:07;;;;;;;26.70;7.72;;;;;;;;;;5076965;28;20028;-60
2021/01/02 00:50:33;;;;;;;23.35;7.43;;;;;;;;;;5081846;28;20040;-60
2021/01/02 00:53:17;;;;;;;22.25;7.70;;;;;;;;;;5075558;28;20040;-60
2021/01/02 00:56:07;;;;;;;23.60;7.40;;;;;;;;;;5063938;28;20055;-60
2021/01/02 00:59:06;;;;;;;25.30;8.18;;;;;;;;;;5072798;28;20040;-60
2021/01/02 01:01:36;;;;;;;18.15;7.90;;;;;;;;;;5083323;28;20051;-59
2021/01/02 01:04:16;;;;;;;21.10;8.38;;;;;;;;;;5083907;28;20088;-59
2021/01/02 01:06:43;;;;;;;24.52;8.73;;;;;;;;;;5075500;28;20219;-60
2021/01/02 01:09:12;;;;;;;22.52;8.18;;;;;;;;;;5079858;28;20048;-60
2021/01/02 01:11:39;;;;;;;24.25;8.88;;;;;;;;;;5080836;28;20036;-60
2021/01/02 01:14:05;;;;;;;22.63;8.40;;;;;;;;;;5074477;28;20041;-60
2021/01/02 01:16:35;;;;;;;26.08;10.40;;;;;;;;;;5077631;28;20033;-60
2021/01/02 01:19:03;;;;;;;22.10;8.77;;;;;;;;;;5071297;28;20141;-60
2021/01/02 01:21:35;;;;;;;25.50;8.07;;;;;;;;;;5081061;28;20046;-60
2021/01/02 01:24:08;;;;;;;26.55;8.98;;;;;;;;;;5073569;28;20367;-59
2021/01/02 01:26:40;;;;;;;24.55;9.35;;;;;;;;;;5060899;28;20029;-60
2021/01/02 01:29:06;;;;;;;22.52;8.07;;;;;;;;;;5068508;28;20084;-61
2021/01/02 01:31:43;;;;;;;19.38;7.53;;;;;;;;;;5081445;28;20077;-60
2021/01/02 01:34:10;;;;;;;23.60;8.52;;;;;;;;;;5075454;28;20052;-60
2021/01/02 01:36:36;;;;;;;25.98;9.13;;;;;;;;;;5064183;28;20045;-59
2021/01/02 01:39:04;;;;;;;26.08;9.05;;;;;;;;;;5082149;28;20110;-60
2021/01/02 01:41:33;;;;;;;26.10;9.40;;;;;;;;;;5083289;28;20039;-60
2021/01/02 01:43:59;;;;;;;;;;;;;;;;;;5080880;28;20129;-60
2021/01/02 01:46:25;;;;;;;22.73;7.75;;;;;;;;;;5081867;28;19947;-59
2021/01/02 01:49:06;;;;;;;25.80;8.48;;;;;;;;;;5079971;28;20044;-59
2021/01/02 01:51:38;;;;;;;18.58;7.78;;;;;;;;;;5083129;28;20174;-60
2021/01/02 01:54:19;;;;;;;24.30;9.07;;;;;;;;;;5079841;28;20086;-60
2021/01/02 01:56:49;;;;;;;26.73;9.05;;;;;;;;;;5068662;28;20036;-60
2021/01/02 01:59:22;;;;;;;25.83;9.65;;;;;;;;;;5080483;28;20047;-60
2021/01/02 02:01:49;;;;;;;23.05;8.10;;;;;;;;;;5083197;28;20032;-59
2021/01/02 02:04:34;;;;;;;22.20;9.30;;;;;;;;;;5080217;28;20058;-60
2021/01/02 02:07:01;;;;;;;26.23;8.20;;;;;;;;;;5082639;28;20040;-59
2021/01/02 02:09:39;;;;;;;26.55;8.60;;;;;;;;;;5080174;28;20040;-59
2021/01/02 02:12:06;;;;;;;24.10;8.63;;;;;;;;;;5082507;28;20044;-60
2021/01/02 02:14:37;;;;;;;24.73;9.48;;;;;;;;;;5081442;28;20113;-59
2021/01/02 02:17:05;;;;;;;23.60;8.55;;;;;;;;;;5084212;28;20048;-60
2021/01/02 02:19:55;;;;;;;25.58;8.88;;;;;;;;;;5082816;28;20040;-59
2021/01/02 02:22:23;;;;;;;27.52;9.00;;;;;;;;;;5064274;28;20049;-60
2021/01/02 02:24:52;;;;;;;22.70;8.18;;;;;;;;;;5064285;28;20029;-60
2021/01/02 02:27:23;;;;;;;25.38;8.48;;;;;;;;;;5078478;28;20519;-59
2021/01/02 02:29:52;;;;;;;21.08;8.82;;;;;;;;;;5063113;28;20360;-60
2021/01/02 02:32:20;;;;;;;19.50;8.10;;;;;;;;;;5078801;28;20044;-60
2021/01/02 02:34:46;;;;;;;23.25;8.27;;;;;;;;;;5084251;28;20072;-60
2021/01/02 02:37:12;;;;;;;18.27;7.53;;;;;;;;;;5079196;28;20032;-60
2021/01/02 02:39:45;;;;;;;23.20;8.57;;;;;;;;;;5083187;28;20043;-59
2021/01/02 02:42:11;;;;;;;21.45;7.75;;;;;;;;;;5079843;28;20062;-60
2021/01/02 02:44:37;;;;;;;21.23;7.85;;;;;;;;;;5074053;28;20037;-60
2021/01/02 02:47:04;;;;;;;21.52;8.63;;;;;;;;;;5079664;28;20036;-60
2021/01/02 02:49:31;;;;;;;23.70;8.77;;;;;;;;;;5083688;28;20048;-60
2021/01/02 02:52:01;;;;;;;20.90;8.18;;;;;;;;;;5079977;28;20037;-60
2021/01/02 02:54:27;;;;;;;17.48;7.53;;;;;;;;;;5083106;28;20051;-60
2021/01/02 02:56:54;;;;;;;20.85;7.57;;;;;;;;;;5076962;28;20047;-60
2021/01/02 02:59:21;;;;;;;24.65;9.18;;;;;;;;;;5081530;28;20084;-60
2021/01/02 03:01:48;;;;;;;25.83;8.82;;;;;;;;;;5077249;28;20040;-59
2021/01/02 03:04:17;;;;;;;19.90;8.52;;;;;;;;;;5082794;28;20056;-60
2021/01/02 03:06:43;;;;;;;23.95;8.77;;;;;;;;;;5079324;28;20502;-60
2021/01/02 03:09:10;;;;;;;23.60;8.60;;;;;;;;;;5081193;28;20033;-60
2021/01/02 03:11:36;;;;;;;21.45;8.93;;;;;;;;;;5082895;28;20046;-60
2021/01/02 03:14:03;;;;;;;20.13;8.35;;;;;;;;;;5078208;28;20100;-60
2021/01/02 03:16:29;;;;;;;23.05;8.93;;;;;;;;;;5083044;28;20040;-60
2021/01/02 03:18:55;;;;;;;27.23;9.48;;;;;;;;;;5080487;28;20059;-59
2021/01/02 03:21:21;;;;;;;21.33;9.00;;;;;;;;;;5083605;28;20042;-60
2021/01/02 03:23:50;;;;;;;23.45;9.07;;;;;;;;;;5078166;28;20201;-60
2021/01/02 03:26:16;;;;;;;18.85;8.32;;;;;;;;;;5076343;28;20178;-59
2021/01/02 03:28:48;;;;;;;22.75;8.32;;;;;;;;;;5078381;28;20138;-59
2021/01/02 03:31:15;;;;;;;23.05;9.43;;;;;;;;;;5083602;28;20041;-59
2021/01/02 03:33:41;;;;;;;27.45;8.48;;;;;;;;;;5079459;28;20032;-59
2021/01/02 03:36:07;;;;;;;22.70;8.55;;;;;;;;;;5082596;28;20041;-59
2021/01/02 03:38:34;;;;;;;18.25;8.32;;;;;;;;;;5080803;28;20067;-60
2021/01/02 03:41:01;;;;;;;18.25;8.00;;;;;;;;;;5082324;28;20051;-60
2021/01/02 03:43:27;;;;;;;20.60;7.50;;;;;;;;;;5078910;28;20514;-60
2021/01/02 03:45:53;;;;;;;21.52;8.23;;;;;;;;;;5084214;28;20129;-60
2021/01/02 03:48:20;;;;;;;21.52;9.23;;;;;;;;;;5079340;28;20033;-60
2021/01/02 03:50:46;;;;;;;22.70;8.13;;;;;;;;;;5083611;28;20044;-61
2021/01/02 03:53:13;;;;;;;25.08;9.27;;;;;;;;;;5082637;28;20113;-59
2021/01/02 03:55:40;;;;;;;21.95;8.13;;;;;;;;;;5075467;28;20055;-60
2021/01/02 03:58:06;;;;;;;25.08;9.60;;;;;;;;;;5060572;28;20044;-60
2021/01/02 04:00:32;;;;;;;22.35;9.55;;;;;;;;;;5074708;28;20046;-60
2021/01/02 04:02:59;;;;;;;22.27;8.63;;;;;;;;;;5083677;28;20056;-59
2021/01/02 04:05:26;;;;;;;23.77;8.88;;;;;;;;;;5078340;28;20036;-60
2021/01/02 04:07:52;;;;;;;21.17;8.52;;;;;;;;;;5082763;28;20051;-59
2021/01/02 04:10:18;;;;;;;27.90;8.75;;;;;;;;;;5069268;28;20037;-59
2021/01/02 04:12:44;;;;;;;21.30;8.68;;;;;;;;;;5061733;28;20052;-60
2021/01/02 04:15:10;;;;;;;19.77;8.38;;;;;;;;;;5068411;28;20055;-60
2021/01/02 04:17:37;;;;;;;20.50;8.80;;;;;;;;;;5082653;28;20049;-60
2021/01/02 04:20:04;;;;;;;27.90;8.77;;;;;;;;;;5078698;28;20040;-60
2021/01/02 04:22:32;;;;;;;19.83;8.77;;;;;;;;;;5081896;28;20097;-60
2021/01/02 04:24:59;;;;;;;27.85;9.60;;;;;;;;;;5079057;28;20051;-60
2021/01/02 04:27:25;;;;;;;18.90;7.57;;;;;;;;;;5082029;28;20085;-60
2021/01/02 04:29:51;;;;;;;20.40;8.30;;;;;;;;;;5078643;28;20044;-59
2021/01/02 04:32:17;;;;;;;24.63;9.45;;;;;;;;;;5080602;28;20046;-61
2021/01/02 04:34:44;;;;;;;22.95;9.10;;;;;;;;;;5082749;28;20032;-60
2021/01/02 04:37:10;;;;;;;20.88;8.90;;;;;;;;;;5078897;28;20068;-59
2021/01/02 04:39:37;;;;;;;23.33;8.80;;;;;;;;;;5082190;28;20036;-60
2021/01/02 04:42:03;;;;;;;22.02;8.80;;;;;;;;;;5078587;28;20160;-59
2021/01/02 04:44:31;;;;;;;24.00;9.05;;;;;;;;;;5080287;28;20132;-59
2021/01/02 04:47:00;;;;;;;24.20;9.38;;;;;;;;;;5078658;28;20068;-59
2021/01/02 04:49:26;;;;;;;21.67;9.25;;;;;;;;;;5080416;28;20051;-59
2021/01/02 04:51:59;;;;;;;26.30;9.73;;;;;;;;;;5080347;28;20083;-59
2021/01/02 04:54:25;;;;;;;25.85;9.38;;;;;;;;;;5082555;28;20036;-60
2021/01/02 04:56:52;;;;;;;23.52;9.32;;;;;;;;;;5075907;28;20079;-60
2021/01/02 04:59:19;;;;;;;23.92;9.90;;;;;;;;;;5081040;28;20043;-59
2021/01/02 05:01:49;;;;;;;24.52;9.25;;;;;;;;;;5078302;28;20056;-59
2021/01/02 05:04:16;;;;;;;26.00;9.32;;;;;;;;;;5083597;28;20069;-59
2021/01/02 05:06:42;;;;;;;25.02;10.43;;;;;;;;;;5074883;28;20045;-59
2021/01/02 05:09:08;;;;;;;24.65;10.10;;;;;;;;;;5061583;28;20036;-59
2021/01/02 05:11:35;;;;;;;23.35;9.32;;;;;;;;;;5061546;28;20052;-60
2021/01/02 05:14:04;;;;;;;21.38;8.95;;;;;;;;;;5081021;28;20055;-60
2021/01/02 05:16:35;;;;;;;30.42;10.85;;;;;;;;;;5081449;28;20043;-60
2021/01/02 05:19:02;;;;;;;20.85;9.13;;;;;;;;;;5076533;28;20116;-59
2021/01/02 05:21:28;;;;;;;26.50;10.43;;;;;;;;;;5061617;28;20029;-60
2021/01/02 05:24:05;;;;;;;25.45;9.55;;;;;;;;;;5077469;28;20051;-59
2021/01/02 05:26:31;;;;;;;23.40;9.65;;;;;;;;;;5084274;28;20078;-59
2021/01/02 05:29:12;;;;;;;22.42;9.80;;;;;;;;;;5079105;28;20024;-60
2021/01/02 05:31:40;;;;;;;24.25;10.15;;;;;;;;;;5077817;28;20076;-60
2021/01/02 05:34:06;;;;;;;24.30;10.23;;;;;;;;;;5075811;28;20121;-60
2021/01/02 05:36:32;;;;;;;27.27;11.07;;;;;;;;;;5079850;28;20040;-60
2021/01/02 05:38:59;;;;;;;23.23;9.77;;;;;;;;;;5075254;28;20064;-59
2021/01/02 05:41:25;;;;;;;25.92;10.10;;;;;;;;;;5079802;28;20036;-60
2021/01/02 05:43:51;;;;;;;19.20;8.75;;;;;;;;;;5076090;28;20051;-60
2021/01/02 05:46:19;;;;;;;28.02;10.52;;;;;;;;;;5080637;28;20064;-60
2021/01/02 05:48:46;;;;;;;26.25;10.05;;;;;;;;;;5075201;28;20084;-60
2021/01/02 05:51:12;;;;;;;19.80;9.02;;;;;;;;;;5081198;28;20044;-59
2021/01/02 05:53:39;;;;;;;24.33;9.73;;;;;;;;;;5077199;28;21343;-60
2021/01/02 05:56:06;;;;;;;21.85;9.95;;;;;;;;;;5079693;28;20039;-59
2021/01/02 05:58:33;;;;;;;23.50;9.57;;;;;;;;;;5077660;28;20044;-60
2021/01/02 06:01:03;;;;;;;21.25;9.25;;;;;;;;;;5081466;28;20040;-60
2021/01/02 06:03:29;;;;;;;27.50;9.40;;;;;;;;;;5077161;28;20151;-59
2021/01/02 06:05:57;;;;;;;27.75;10.02;;;;;;;;;;5080985;28;20418;-60
2021/01/02 06:08:29;;;;;;;25.60;9.95;;;;;;;;;;5078695;28;20058;-60
2021/01/02 06:10:58;;;;;;;22.20;9.43;;;;;;;;;;5078440;28;20056;-59
2021/01/02 06:13:26;;;;;;;27.92;9.82;;;;;;;;;;5079805;28;20060;-60
2021/01/02 06:15:53;;;;;;;26.23;10.30;;;;;;;;;;5076893;28;20053;-59
2021/01/02 06:18:19;;;;;;;24.38;11.40;;;;;;;;;;5078536;28;20051;-59
2021/01/02 06:20:45;;;;;;;29.63;11.02;;;;;;;;;;5077224;28;20033;-59
2021/01/02 06:23:17;;;;;;;25.30;10.43;;;;;;;;;;5084355;28;20037;-60
2021/01/02 06:25:44;;;;;;;29.33;10.52;;;;;;;;;;5076202;28;20064;-59
2021/01/02 06:28:10;;;;;;;24.70;9.05;;;;;;;;;;5065533;28;20061;-59
2021/01/02 06:30:39;;;;;;;29.23;10.50;;;;;;;;;;5071478;28;20045;-59
2021/01/02 06:33:06;;;;;;;25.90;11.30;;;;;;;;;;5084545;28;20429;-59
2021/01/02 06:35:38;;;;;;;33.85;11.23;;;;;;;;;;5076816;28;20033;-60
2021/01/02 06:38:04;;;;;;;27.67;11.43;;;;;;;;;;5075349;28;20028;-60
2021/01/02 06:40:36;;;;;;;33.00;12.05;;;;;;;;;;5080710;28;20051;-60
2021/01/02 06:43:03;;;;;;;29.25;11.30;;;;;;;;;;5083443;28;20092;-60
2021/01/02 06:45:51;;;;;;;30.00;11.20;;;;;;;;;;5079321;28;20075;-60
2021/01/02 06:48:47;;;;;;;29.60;10.93;;;;;;;;;;5075487;28;20032;-60
2021/01/02 06:51:25;;;;;;;26.90;10.32;;;;;;;;;;5077744;28;20044;-60
2021/01/02 06:53:51;;;;;;;30.00;10.65;;;;;;;;;;5081315;28;20032;-59
2021/01/02 06:56:18;;;;;;;26.30;9.93;;;;;;;;;;5079866;28;20060;-59
2021/01/02 06:58:45;;;;;;;31.10;11.93;;;;;;;;;;5083353;28;20046;-60
2021/01/02 07:01:26;;;;;;;33.17;11.95;;;;;;;;;;5080120;28;20040;-60
2021/01/02 07:03:53;;;;;;;30.05;11.13;;;;;;;;;;5083612;28;20090;-60
2021/01/02 07:06:26;;;;;;;29.63;11.10;;;;;;;;;;5082249;28;20051;-59
2021/01/02 07:08:53;;;;;;;27.45;10.45;;;;;;;;;;5084572;28;20041;-60
2021/01/02 07:11:21;;;;;;;32.20;11.90;;;;;;;;;;5080804;28;20043;-59
2021/01/02 07:13:47;;;;;;;33.80;12.18;;;;;;;;;;5083158;28;20051;-60
2021/01/02 07:16:29;;;;;;;29.38;11.82;;;;;;;;;;5080865;28;20056;-59
2021/01/02 07:18:55;;;;;;;29.40;11.80;;;;;;;;;;5061274;28;20036;-60
2021/01/02 07:21:34;;;;;;;32.63;12.30;;;;;;;;;;5063081;28;20044;-60
2021/01/02 07:24:14;;;;;;;32.15;11.98;;;;;;;;;;5061311;28;20041;-61
2021/01/02 07:26:43;;;;;;;31.63;12.10;;;;;;;;;;5061071;28;20044;-59
2021/01/02 07:29:16;;;;;;;30.33;11.38;;;;;;;;;;5077492;28;20061;-60
2021/01/02 07:31:45;;;;;;;33.53;11.80;;;;;;;;;;5078217;28;20059;-60
2021/01/02 07:34:17;;;;;;;30.00;11.68;;;;;;;;;;5080217;28;20036;-60
2021/01/02 07:36:44;;;;;;;36.65;13.65;;;;;;;;;;5081772;28;20032;-60
2021/01/02 07:39:10;;;;;;;34.25;12.73;;;;;;;;;;5078652;28;20051;-60
2021/01/02 07:41:36;;;;;;;32.88;13.07;;;;;;;;;;5082834;28;20036;-60
2021/01/02 07:44:08;;;;;;;32.63;12.38;;;;;;;;;;5079405;28;20097;-60
2021/01/02 07:46:42;;;;;;;36.60;14.00;;;;;;;;;;5080724;28;20154;-59
2021/01/02 07:49:08;;;;;;;29.30;12.30;;;;;;;;;;5079278;28;20050;-60
2021/01/02 07:51:34;;;;;;;40.03;13.18;;;;;;;;;;5081148;28;20044;-60
2021/01/02 07:54:00;;;;;;;38.05;12.20;;;;;;;;;;5080686;28;20042;-61
2021/01/02 07:56:36;;;;;;;35.40;12.80;;;;;;;;;;5082285;28;20028;-60
2021/01/02 07:59:20;;;;;;;40.22;13.45;;;;;;;;;;5077566;28;20044;-59
2021/01/02 08:01:50;;;;;;;35.58;13.00;;;;;;;;;;5081035;28;20070;-60
2021/01/02 08:04:17;;;;;;;35.50;13.40;;;;;;;;;;5078464;28;20040;-60
2021/01/02 08:06:43;;;;;;;30.52;11.80;;;;;;;;;;5082222;28;20040;-60
2021/01/02 08:09:09;;;;;;;34.45;12.85;;;;;;;;;;5078161;28;20040;-61
2021/01/02 08:11:38;;;;;;;;;;;;;;;;;;5083199;28;20032;-60
2021/01/02 08:14:04;;;;;;;35.22;12.10;;;;;;;;;;5077972;28;19935;-60
2021/01/02 08:16:30;;;;;;;48.58;13.43;;;;;;;;;;5082165;28;20043;-59
2021/01/02 08:19:04;;;;;;;30.60;11.80;;;;;;;;;;5076505;28;20060;-59
2021/01/02 08:21:30;;;;;;;35.75;13.45;;;;;;;;;;5082351;28;20033;-59
2021/01/02 08:23:56;;;;;;;37.33;13.07;;;;;;;;;;5078590;28;20125;-60
2021/01/02 08:26:22;;;;;;;34.13;13.18;;;;;;;;;;5080248;28;20036;-60
2021/01/02 08:28:48;;;;;;;34.78;12.48;;;;;;;;;;5081461;28;20036;-60
2021/01/02 08:31:15;;;;;;;34.45;12.68;;;;;;;;;;5079325;28;20047;-60
2021/01/02 08:33:43;;;;;;;46.33;13.40;;;;;;;;;;5082251;28;20114;-60
2021/01/02 08:36:18;;;;;;;48.30;14.93;;;;;;;;;;5078726;28;20040;-59
2021/01/02 08:38:44;;;;;;;39.58;13.45;;;;;;;;;;5080599;28;20052;-60
2021/01/02 08:41:19;;;;;;;42.03;13.55;;;;;;;;;;5076881;28;20035;-60
2021/01/02 08:43:47;;;;;;;32.20;12.18;;;;;;;;;;5058882;28;20041;-59
2021/01/02 08:46:13;;;;;;;32.07;12.23;;;;;;;;;;5071010;28;20036;-60
2021/01/02 08:48:44;;;;;;;33.05;13.02;;;;;;;;;;5080947;28;20036;-59
2021/01/02 08:51:21;;;;;;;41.90;12.45;;;;;;;;;;5074638;28;20043;-60
2021/01/02 08:53:47;;;;;;;37.30;12.00;;;;;;;;;;5061349;28;20047;-58
2021/01/02 08:56:20;;;;;;;30.40;11.15;;;;;;;;;;5084145;28;20040;-59
2021/01/02 08:58:46;;;;;;;33.63;11.95;;;;;;;;;;5080700;28;20052;-59
2021/01/02 09:01:12;;;;;;;33.83;11.38;;;;;;;;;;5079150;28;20048;-60
2021/01/02 09:03:38;;;;;;;26.20;9.02;;;;;;;;;;5081664;28;20055;-60
2021/01/02 09:06:16;;;;;;;31.85;12.15;;;;;;;;;;5074543;28;20032;-59
2021/01/02 09:08:43;;;;;;;29.00;9.77;;;;;;;;;;5060394;28;20041;-60
2021/01/02 09:11:09;;;;;;;36.17;11.13;;;;;;;;;;5063505;28;20052;-60
2021/01/02 09:13:35;;;;;;;33.03;10.23;;;;;;;;;;5083519;28;20043;-60
2021/01/02 09:16:01;;;;;;;37.55;11.73;;;;;;;;;;5077680;28;20048;-59
2021/01/02 09:18:51;;;;;;;35.50;10.93;;;;;;;;;;5079792;28;20135;-60
2021/01/02 09:21:19;;;;;;;32.67;10.70;;;;;;;;;;5077270;28;20041;-59
2021/01/02 09:23:46;;;;;;;34.85;10.13;;;;;;;;;;5082525;28;20055;-60
2021/01/02 09:26:18;;;;;;;32.55;12.15;;;;;;;;;;5079461;28;20052;-60
2021/01/02 09:28:44;;;;;;;32.67;10.98;;;;;;;;;;5077850;28;20056;-60
2021/01/02 09:31:11;;;;;;;30.95;11.93;;;;;;;;;;5081553;28;20036;-60
2021/01/02 09:33:37;;;;;;;32.55;11.07;;;;;;;;;;5077426;28;20047;-59
2021/01/02 09:36:03;;;;;;;31.48;11.10;;;;;;;;;;5080606;28;20096;-60
2021/01/02 09:38:30;;;;;;;35.75;13.25;;;;;;;;;;5078345;28;20049;-60
2021/01/02 09:40:57;;;;;;;36.08;12.30;;;;;;;;;;5080521;28;20040;-60
2021/01/02 09:43:23;;;;;;;40.33;13.98;;;;;;;;;;5077859;28;20048;-60
2021/01/02 09:45:49;;;;;;;35.92;12.82;;;;;;;;;;5084511;28;20076;-60
2021/01/02 09:48:17;;;;;;;39.03;12.43;;;;;;;;;;5074326;28;20055;-60
2021/01/02 09:50:43;;;;;;;35.50;12.80;;;;;;;;;;5080416;28;20043;-60
2021/01/02 09:53:10;;;;;;;41.35;13.20;;;;;;;;;;5075338;28;20040;-60
2021/01/02 09:55:36;;;;;;;36.47;12.35;;;;;;;;;;5081651;28;20045;-60
2021/01/02 09:58:05;;;;;;;37.38;12.98;;;;;;;;;;5079129;28;20115;-59
2021/01/02 10:00:31;;;;;;;37.30;12.38;;;;;;;;;;5080852;28;20032;-59
2021/01/02 10:02:58;;;;;;;35.47;11.85;;;;;;;;;;5085700;28;20051;-59
2021/01/02 10:05:25;;;;;;;39.65;12.02;;;;;;;;;;5086337;28;20032;-61
2021/01/02 10:07:51;;;;;;;38.20;12.35;;;;;;;;;;5082636;28;20051;-59
2021/01/02 10:10:18;;;;;;;49.92;13.57;;;;;;;;;;5096991;28;20037;-60
2021/01/02 10:12:45;;;;;;;51.05;13.57;;;;;;;;;;5083631;28;20069;-59
2021/01/02 10:15:15;;;;;;;38.95;13.07;;;;;;;;;;5077266;28;20032;-59
2021/01/02 10:17:41;;;;;;;44.92;11.45;;;;;;;;;;5081611;28;20048;-60
2021/01/02 10:20:08;;;;;;;36.55;12.25;;;;;;;;;;5086430;28;20055;-59
2021/01/02 10:22:34;;;;;;;38.55;13.23;;;;;;;;;;5082657;28;20040;-60
2021/01/02 10:25:00;;;;;;;38.35;13.90;;;;;;;;;;5079343;28;20037;-60
2021/01/02 10:27:27;;;;;;;43.65;11.07;;;;;;;;;;5084273;28;20020;-59
2021/01/02 10:29:54;;;;;;;41.38;10.93;;;;;;;;;;5080107;28;20028;-60
2021/01/02 10:32:22;;;;;;;39.25;13.60;;;;;;;;;;5083349;28;20056;-61
2021/01/02 10:34:49;;;;;;;44.43;14.77;;;;;;;;;;5080181;28;20113;-61
2021/01/02 10:37:15;;;;;;;44.22;12.48;;;;;;;;;;5085860;28;20350;-61
2021/01/02 10:39:42;;;;;;;34.38;11.27;;;;;;;;;;5080576;28;20039;-60
2021/01/02 10:42:09;;;;;;;39.05;11.13;;;;;;;;;;5081198;28;20063;-60
2021/01/02 10:44:42;;;;;;;37.08;13.13;;;;;;;;;;5079961;28;20045;-61
2021/01/02 10:47:08;;;;;;;30.88;10.82;;;;;;;;;;5081933;28;20052;-61
2021/01/02 10:49:35;;;;;;;42.42;11.98;;;;;;;;;;5079177;28;20059;-61
2021/01/02 10:52:01;;;;;;;39.85;12.25;;;;;;;;;;5083902;28;20071;-60
2021/01/02 10:54:27;;;;;;;36.58;11.80;;;;;;;;;;5082251;28;20044;-61
2021/01/02 10:56:54;;;;;;;37.17;13.48;;;;;;;;;;5077867;28;20045;-60
2021/01/02 10:59:21;;;;;;;30.88;9.80;;;;;;;;;;5080520;28;20407;-61
2021/01/02 11:01:49;;;;;;;37.95;12.63;;;;;;;;;;5077596;28;20071;-60
2021/01/02 11:04:16;;;;;;;38.38;13.02;;;;;;;;;;5084081;28;20032;-60
2021/01/02 11:06:43;;;;;;;38.35;12.38;;;;;;;;;;5081090;28;20072;-61
2021/01/02 11:09:10;;;;;;;38.42;13.63;;;;;;;;;;5081947;28;20048;-60
2021/01/02 11:11:37;;;;;;;36.83;13.02;;;;;;;;;;5077623;28;20032;-60
2021/01/02 11:14:03;;;;;;;44.25;15.07;;;;;;;;;;5082136;28;20028;-60
2021/01/02 11:16:30;;;;;;;43.08;12.43;;;;;;;;;;5078141;28;20036;-60
2021/01/02 11:18:56;;;;;;;39.28;12.20;;;;;;;;;;5078927;28;20032;-61
2021/01/02 11:21:22;;;;;;;39.58;12.70;;;;;;;;;;5079377;28;20096;-60
2021/01/02 11:23:49;;;;;;;39.17;11.88;;;;;;;;;;5088334;28;20028;-60
2021/01/02 11:26:15;;;;;;;46.85;15.35;;;;;;;;;;5077871;28;20040;-60
2021/01/02 11:28:41;;;;;;;44.80;13.35;;;;;;;;;;5081876;28;20036;-60
2021/01/02 11:31:07;;;;;;;31.08;11.07;;;;;;;;;;5078846;28;20032;-60
2021/01/02 11:33:33;;;;;;;35.47;12.45;;;;;;;;;;5079662;28;20036;-60
2021/01/02 11:35:59;;;;;;;34.00;11.73;;;;;;;;;;5082132;28;20059;-60
2021/01/02 11:38:25;;;;;;;35.22;12.50;;;;;;;;;;5076090;28;20067;-61
2021/01/02 11:40:52;;;;;;;45.58;13.73;;;;;;;;;;5082101;28;20043;-60
2021/01/02 11:43:19;;;;;;;35.05;12.85;;;;;;;;;;5075741;28;20121;-60
2021/01/02 11:45:45;;;;;;;39.28;13.07;;;;;;;;;;5083656;27;20056;-61
2021/01/02 11:48:12;;;;;;;50.53;16.98;;;;;;;;;;5079458;28;20105;-61
2021/01/02 11:50:39;;;;;;;41.63;14.95;;;;;;;;;;5080267;28;20048;-60
2021/01/02 11:53:07;;;;;;;44.95;13.00;;;;;;;;;;5076894;28;20044;-60
2021/01/02 11:55:33;;;;;;;43.58;13.85;;;;;;;;;;5084154;28;20064;-60
2021/01/02 11:58:00;;;;;;;33.58;10.77;;;;;;;;;;5071372;28;20032;-60
2021/01/02 12:00:27;;;;;;;32.58;11.18;;;;;;;;;;5080630;28;20091;-60
2021/01/02 12:02:53;;;;;;;48.58;12.70;;;;;;;;;;5075114;28;20056;-60
2021/01/02 12:05:22;;;;;;;36.38;12.18;;;;;;;;;;5081761;28;20630;-60
2021/01/02 12:07:49;;;;;;;49.05;14.55;;;;;;;;;;5076574;28;20036;-60
2021/01/02 12:10:15;;;;;;;40.42;13.02;;;;;;;;;;5081123;28;20044;-60
2021/01/02 12:12:41;;;;;;;42.83;13.25;;;;;;;;;;5082254;28;20093;-61
2021/01/02 12:15:11;;;;;;;46.22;13.80;;;;;;;;;;5075787;28;20066;-60
2021/01/02 12:17:39;;;;;;;39.13;12.55;;;;;;;;;;5076663;28;20092;-61
2021/01/02 12:20:06;;;;;;;40.65;12.38;;;;;;;;;;5074986;28;20051;-60
2021/01/02 12:22:32;;;;;;;45.47;12.68;;;;;;;;;;5079467;28;20480;-61
2021/01/02 12:24:58;;;;;;;37.92;12.25;;;;;;;;;;5077086;28;20084;-60
2021/01/02 12:27:24;;;;;;;35.50;12.50;;;;;;;;;;5079925;28;20028;-60
2021/01/02 12:29:50;;;;;;;35.08;11.63;;;;;;;;;;5077084;28;20028;-60
2021/01/02 12:32:17;;;;;;;38.22;12.55;;;;;;;;;;5081075;28;20055;-60
2021/01/02 12:34:45;;;;;;;42.30;12.55;;;;;;;;;;5067283;28;20048;-61
2021/01/02 12:37:15;;;;;;;42.83;13.18;;;;;;;;;;5065956;28;20036;-60
2021/01/02 12:39:42;;;;;;;42.80;12.05;;;;;;;;;;5073922;28;20450;-60
2021/01/02 12:42:09;;;;;;;40.13;12.13;;;;;;;;;;5093204;27;20028;-61
2021/01/02 12:44:36;;;;;;;38.92;12.30;;;;;;;;;;5088444;28;20124;-60
2021/01/02 12:47:06;;;;;;;40.67;12.02;;;;;;;;;;5083336;28;20090;-61
2021/01/02 12:49:33;;;;;;;35.08;11.05;;;;;;;;;;5077549;28;20059;-61
2021/01/02 12:52:00;;;;;;;36.72;11.43;;;;;;;;;;5080092;28;20028;-61
2021/01/02 12:54:26;;;;;;;37.40;11.90;;;;;;;;;;5079417;28;20036;-60
2021/01/02 12:56:53;;;;;;;39.65;12.48;;;;;;;;;;5080364;28;20097;-60
2021/01/02 12:59:20;;;;;;;32.28;11.95;;;;;;;;;;5081107;28;20048;-61
2021/01/02 13:01:46;;;;;;;28.52;10.60;;;;;;;;;;5078512;28;20048;-61
2021/01/02 13:04:12;;;;;;;41.20;10.98;;;;;;;;;;5080776;28;20040;-61
2021/01/02 13:06:39;;;;;;;39.28;12.27;;;;;;;;;;5079935;28;20077;-61
2021/01/02 13:09:06;;;;;;;34.53;11.82;;;;;;;;;;5082632;28;20028;-61
2021/01/02 13:11:33;;;;;;;40.38;11.35;;;;;;;;;;5079912;28;20063;-60
2021/01/02 13:13:59;;;;;;;33.67;11.02;;;;;;;;;;5081761;28;20065;-60
2021/01/02 13:16:25;;;;;;;39.28;12.63;;;;;;;;;;5073852;28;20078;-60
2021/01/02 13:18:51;;;;;;;33.78;10.63;;;;;;;;;;5051966;28;20505;-60
2021/01/02 13:21:17;;;;;;;39.65;11.75;;;;;;;;;;5065339;28;20064;-61
2021/01/02 13:23:44;;;;;;;45.88;13.75;;;;;;;;;;5082129;28;20049;-60
2021/01/02 13:26:11;;;;;;;46.63;13.35;;;;;;;;;;5077630;28;20029;-60
2021/01/02 13:28:37;;;;;;;43.83;13.40;;;;;;;;;;5079574;28;20036;-60
2021/01/02 13:31:03;;;;;;;45.58;13.40;;;;;;;;;;5077552;28;20044;-60
2021/01/02 13:33:31;;;;;;;34.90;12.13;;;;;;;;;;5080922;28;20044;-61
2021/01/02 13:35:58;;;;;;;42.58;12.15;;;;;;;;;;5080896;28;20120;-60
2021/01/02 13:38:24;;;;;;;43.35;11.85;;;;;;;;;;5078951;28;20040;-60
2021/01/02 13:40:51;;;;;;;42.85;13.88;;;;;;;;;;5079024;28;20138;-60
2021/01/02 13:43:17;;;;;;;36.28;10.20;;;;;;;;;;5077144;28;20047;-61
2021/01/02 13:45:43;;;;;;;45.08;13.45;;;;;;;;;;5082284;28;20032;-61
2021/01/02 13:48:09;;;;;;;38.47;12.20;;;;;;;;;;5076057;28;20055;-60
2021/01/02 13:50:35;;;;;;;39.33;12.20;;;;;;;;;;5082067;28;20029;-60
2021/01/02 13:53:02;;;;;;;37.15;12.45;;;;;;;;;;5060434;28;20501;-61
2021/01/02 13:55:28;;;;;;;40.55;12.95;;;;;;;;;;5080836;28;20125;-61
2021/01/02 13:57:55;;;;;;;33.22;11.23;;;;;;;;;;5077786;28;20032;-60
2021/01/02 14:00:21;;;;;;;36.03;10.90;;;;;;;;;;5080820;28;20063;-60
2021/01/02 14:02:47;;;;;;;42.33;14.00;;;;;;;;;;5078004;28;20513;-60
2021/01/02 14:05:13;;;;;;;32.20;11.40;;;;;;;;;;5080398;28;20043;-60
2021/01/02 14:07:40;;;;;;;43.10;12.70;;;;;;;;;;5076874;28;20348;-60
2021/01/02 14:10:06;;;;;;;31.45;10.60;;;;;;;;;;5080997;28;20032;-61
2021/01/02 14:12:34;;;;;;;36.70;11.55;;;;;;;;;;5076689;28;20101;-60
2021/01/02 14:15:04;;;;;;;32.55;10.43;;;;;;;;;;5080325;28;20051;-61
2021/01/02 14:17:30;;;;;;;37.47;11.32;;;;;;;;;;5080113;28;20033;-60
2021/01/02 14:19:57;;;;;;;40.08;11.57;;;;;;;;;;5073322;28;20055;-60
2021/01/02 14:22:23;;;;;;;31.00;11.15;;;;;;;;;;5054822;28;20036;-60
2021/01/02 14:24:50;;;;;;;34.25;10.63;;;;;;;;;;5073229;28;20036;-60
2021/01/02 14:27:16;;;;;;;34.92;11.50;;;;;;;;;;5081190;28;20348;-60
2021/01/02 14:29:42;;;;;;;32.80;11.82;;;;;;;;;;5077185;28;20044;-61